createdAt,value
2019-05-02T00:00:47.726Z,87.06
2019-05-02T00:03:17.619Z,86.38
2019-05-02T00:05:50.199Z,86.69
2019-05-02T00:08:20.111Z,87.18
2019-05-02T00:10:50.316Z,87.33
2019-05-02T00:13:20.565Z,87.20
2019-05-02T00:15:51.195Z,87.79
2019-05-02T00:18:22.171Z,87.29
2019-05-02T00:20:51.994Z,87.42
2019-05-02T00:23:22.965Z,87.14
2019-05-02T00:25:55.877Z,87.13
2019-05-02T00:28:25.959Z,87.13
2019-05-02T00:30:55.542Z,87.19
2019-05-02T00:33:29.227Z,86.58
2019-05-02T00:35:56.963Z,86.24
2019-05-02T00:38:26.436Z,85.96
2019-05-02T00:41:02.128Z,86.49
2019-05-02T00:43:34.258Z,86.44
2019-05-02T00:46:00.963Z,86.77
2019-05-02T00:48:35.980Z,86.99
2019-05-02T00:51:08.372Z,87.92
2019-05-02T00:53:37.794Z,88.18
2019-05-02T00:56:09.096Z,87.72
2019-05-02T00:58:38.846Z,87.61
2019-05-02T01:01:29.445Z,87.66
2019-05-02T01:04:01.827Z,88.00
2019-05-02T01:06:31.377Z,87.89
2019-05-02T01:09:00.748Z,87.40
2019-05-02T01:11:32.197Z,87.49
2019-05-02T01:14:01.424Z,87.74
2019-05-02T01:16:30.828Z,88.18
2019-05-02T01:19:00.201Z,88.49
2019-05-02T01:21:34.124Z,88.45
2019-05-02T01:24:03.118Z,88.29
2019-05-02T01:26:36.060Z,88.29
2019-05-02T01:29:10.950Z,88.31
2019-05-02T01:32:01.421Z,87.85
2019-05-02T01:35:04.549Z,88.13
2019-05-02T01:37:54.895Z,88.21
2019-05-02T01:40:25.091Z,87.94
2019-05-02T01:42:57.265Z,87.70
2019-05-02T01:45:26.856Z,87.76
2019-05-02T01:47:56.346Z,87.60
2019-05-02T01:50:33.540Z,87.70
2019-05-02T01:53:01.504Z,87.80
2019-05-02T01:55:30.918Z,87.79
2019-05-02T01:58:00.323Z,87.89
2019-05-02T02:00:29.686Z,88.10
2019-05-02T02:02:59.108Z,88.12
2019-05-02T02:05:32.336Z,87.72
2019-05-02T02:07:59.644Z,87.71
2019-05-02T02:10:29.100Z,87.63
2019-05-02T02:13:04.905Z,87.34
2019-05-02T02:15:30.275Z,87.58
2019-05-02T02:17:59.655Z,87.71
2019-05-02T02:20:33.943Z,87.45
2019-05-02T02:23:15.283Z,87.47
2019-05-02T02:25:54.360Z,87.46
2019-05-02T02:28:23.731Z,87.69
2019-05-02T02:30:57.706Z,87.82
2019-05-02T02:33:25.391Z,88.28
2019-05-02T02:35:55.511Z,88.66
2019-05-02T02:38:26.853Z,88.82
2019-05-02T02:40:56.308Z,88.62
2019-05-02T02:43:34.167Z,88.91
2019-05-02T02:46:13.397Z,88.22
2019-05-02T02:48:43.010Z,88.30
2019-05-02T02:51:22.700Z,88.12
2019-05-02T02:53:43.556Z,87.93
2019-05-02T02:56:12.950Z,87.82
2019-05-02T02:58:47.646Z,87.76
2019-05-02T03:01:13.832Z,86.78
2019-05-02T03:03:43.206Z,86.65
2019-05-02T03:06:12.551Z,86.31
2019-05-02T03:08:46.655Z,86.43
2019-05-02T03:11:22.742Z,86.30
2019-05-02T03:14:11.314Z,86.43
2019-05-02T03:16:46.895Z,85.68
2019-05-02T03:19:14.767Z,85.54
2019-05-02T03:21:54.244Z,85.82
2019-05-02T03:24:26.221Z,86.29
2019-05-02T03:26:58.319Z,86.10
2019-05-02T03:29:39.269Z,86.27
2019-05-02T03:32:14.255Z,86.09
2019-05-02T03:34:47.822Z,85.65
2019-05-02T03:37:10.531Z,85.91
2019-05-02T03:39:33.767Z,85.54
2019-05-02T03:42:05.048Z,85.63
2019-05-02T03:44:34.558Z,85.42
2019-05-02T03:47:04.980Z,85.08
2019-05-02T03:49:41.020Z,85.54
2019-05-02T03:52:07.052Z,85.96
2019-05-02T03:54:48.916Z,86.24
2019-05-02T03:57:08.109Z,86.59
2019-05-02T03:59:39.367Z,86.71
2019-05-02T04:02:14.073Z,86.78
2019-05-02T04:04:40.618Z,87.01
2019-05-02T04:07:10.715Z,87.39
2019-05-02T04:09:42.577Z,87.45
2019-05-02T04:12:18.338Z,87.56
2019-05-02T04:14:42.799Z,87.70
2019-05-02T04:17:12.270Z,87.94
2019-05-02T04:19:41.888Z,88.43
2019-05-02T04:22:12.394Z,88.29
2019-05-02T04:24:47.741Z,88.08
2019-05-02T04:27:34.219Z,88.31
2019-05-02T04:30:10.905Z,88.18
2019-05-02T04:32:35.032Z,88.24
2019-05-02T04:35:05.895Z,87.91
2019-05-02T04:37:41.061Z,87.65
2019-05-02T04:40:11.268Z,87.00
2019-05-02T04:42:39.313Z,87.07
2019-05-02T04:45:24.332Z,86.78
2019-05-02T04:47:42.533Z,87.32
2019-05-02T04:50:18.315Z,87.27
2019-05-02T04:52:51.109Z,87.36
2019-05-02T04:55:24.964Z,87.63
2019-05-02T04:57:50.909Z,87.48
2019-05-02T05:00:28.376Z,86.85
2019-05-02T05:02:57.893Z,86.25
2019-05-02T05:05:32.617Z,86.63
2019-05-02T05:08:02.128Z,85.10
2019-05-02T05:10:40.396Z,85.66
2019-05-02T05:13:02.641Z,84.97
2019-05-02T05:15:40.285Z,84.57
2019-05-02T05:18:04.464Z,84.33
2019-05-02T05:20:37.899Z,84.07
2019-05-02T05:23:08.091Z,82.89
2019-05-02T05:25:50.623Z,82.59
2019-05-02T05:28:20.293Z,82.31
2019-05-02T05:30:52.213Z,82.43
2019-05-02T05:33:21.188Z,82.52
2019-05-02T05:35:52.722Z,82.66
2019-05-02T05:38:27.815Z,83.01
2019-05-02T05:40:53.437Z,83.12
2019-05-02T05:43:27.549Z,83.17
2019-05-02T05:46:09.223Z,83.01
2019-05-02T05:48:32.082Z,83.15
2019-05-02T05:51:00.831Z,83.13
2019-05-02T05:53:30.391Z,84.02
2019-05-02T05:56:02.464Z,83.35
2019-05-02T05:58:30.942Z,83.97
2019-05-02T06:01:00.302Z,84.16
2019-05-02T06:03:33.954Z,85.33
2019-05-02T06:06:01.041Z,84.45
2019-05-02T06:08:30.444Z,84.31
2019-05-02T06:10:59.820Z,84.04
2019-05-02T06:13:29.235Z,83.63
2019-05-02T06:16:02.626Z,81.48
2019-05-02T06:18:30.182Z,82.19
2019-05-02T06:21:03.429Z,82.15
2019-05-02T06:23:31.115Z,81.04
2019-05-02T06:26:07.681Z,81.43
2019-05-02T06:28:36.185Z,81.17
2019-05-02T06:31:07.263Z,81.75
2019-05-02T06:33:35.284Z,80.65
2019-05-02T06:36:05.462Z,79.94
2019-05-02T06:38:34.843Z,81.25
2019-05-02T06:41:04.223Z,80.62
2019-05-02T06:43:33.700Z,78.93
2019-05-02T06:46:15.591Z,78.35
2019-05-02T06:48:34.221Z,79.88
2019-05-02T06:51:03.687Z,80.36
2019-05-02T06:53:35.089Z,81.01
2019-05-02T06:56:07.904Z,80.72
2019-05-02T06:58:37.068Z,80.88
2019-05-02T07:01:06.814Z,80.46
2019-05-02T07:03:36.162Z,78.93
2019-05-02T07:06:07.671Z,79.36
2019-05-02T07:08:37.221Z,78.82
2019-05-02T07:11:06.784Z,77.09
2019-05-02T07:13:41.845Z,76.87
2019-05-02T07:16:37.615Z,76.87
2019-05-02T07:19:02.417Z,77.31
2019-05-02T07:21:31.981Z,78.02
2019-05-02T07:24:01.401Z,77.59
2019-05-02T07:26:33.070Z,77.71
2019-05-02T07:29:02.424Z,79.04
2019-05-02T07:31:31.869Z,76.99
2019-05-02T07:34:01.780Z,77.02
2019-05-02T07:36:36.374Z,75.75
2019-05-02T07:39:06.122Z,75.63
2019-05-02T07:41:37.230Z,74.57
2019-05-02T07:44:06.761Z,72.24
2019-05-02T07:46:51.112Z,74.01
2019-05-02T07:49:20.846Z,73.29
2019-05-02T07:51:52.192Z,71.61
2019-05-02T07:54:24.902Z,71.70
2019-05-02T07:56:53.595Z,70.94
2019-05-02T07:59:27.028Z,69.65
2019-05-02T08:01:56.444Z,68.72
2019-05-02T08:04:27.586Z,68.64
2019-05-02T08:06:57.308Z,69.11
2019-05-02T08:09:27.257Z,71.30
2019-05-02T08:11:59.204Z,69.51
2019-05-02T08:14:29.308Z,69.42
2019-05-02T08:17:05.595Z,66.83
2019-05-02T08:19:30.929Z,69.08
2019-05-02T08:22:04.687Z,69.64
2019-05-02T08:24:33.033Z,69.49
2019-05-02T08:27:18.729Z,69.54
2019-05-02T08:29:48.128Z,69.81
2019-05-02T08:32:17.559Z,69.33
2019-05-02T08:34:51.876Z,70.62
2019-05-02T08:37:18.193Z,67.92
2019-05-02T08:39:48.518Z,69.53
2019-05-02T08:42:18.041Z,68.50
2019-05-02T08:44:51.327Z,69.53
2019-05-02T08:47:23.542Z,69.93
2019-05-02T08:49:54.612Z,69.78
2019-05-02T08:52:21.591Z,68.82
2019-05-02T08:54:51.056Z,65.53
2019-05-02T08:57:20.494Z,69.83
2019-05-02T08:59:50.147Z,69.39
2019-05-02T09:02:21.086Z,70.53
2019-05-02T09:04:58.776Z,71.64
2019-05-02T09:07:25.686Z,72.05
2019-05-02T09:09:55.595Z,76.50
2019-05-02T09:12:27.929Z,73.29
2019-05-02T09:14:57.417Z,71.36
2019-05-02T09:17:37.751Z,68.64
2019-05-02T09:20:03.462Z,70.54
2019-05-02T09:22:32.786Z,67.17
2019-05-02T09:25:02.345Z,66.73
2019-05-02T09:27:31.927Z,67.58
2019-05-02T09:30:02.796Z,66.14
2019-05-02T09:32:32.331Z,65.58
2019-05-02T09:35:06.072Z,66.73
2019-05-02T09:37:32.930Z,66.92
2019-05-02T09:40:06.952Z,67.10
2019-05-02T09:42:33.855Z,66.46
2019-05-02T09:45:03.992Z,66.42
2019-05-02T09:47:46.954Z,65.61
2019-05-02T09:50:14.572Z,63.00
2019-05-02T09:52:44.314Z,62.98
2019-05-02T09:55:15.783Z,59.97
2019-05-02T09:57:45.187Z,59.56
2019-05-02T10:00:32.385Z,58.24
2019-05-02T10:03:00.242Z,60.19
2019-05-02T10:05:29.698Z,58.26
2019-05-02T10:08:03.222Z,58.66
2019-05-02T10:10:32.391Z,58.55
2019-05-02T10:13:02.742Z,57.25
2019-05-02T10:15:32.888Z,51.37
2019-05-02T10:18:10.730Z,51.76
2019-05-02T10:20:36.170Z,55.04
2019-05-02T10:23:05.352Z,54.13
2019-05-02T10:25:38.567Z,55.18
2019-05-02T10:28:06.673Z,54.99
2019-05-02T10:30:36.333Z,52.06
2019-05-02T10:33:06.453Z,54.21
2019-05-02T10:35:40.825Z,55.61
2019-05-02T10:38:15.127Z,53.85
2019-05-02T10:40:42.469Z,51.75
2019-05-02T10:43:12.033Z,50.60
2019-05-02T10:45:47.433Z,51.39
2019-05-02T10:48:25.251Z,52.47
2019-05-02T10:50:52.475Z,53.83
2019-05-02T10:53:22.099Z,52.73
2019-05-02T10:55:52.298Z,52.46
2019-05-02T10:58:23.961Z,50.61
2019-05-02T11:00:53.199Z,50.79
2019-05-02T11:03:28.577Z,51.76
2019-05-02T11:06:05.707Z,50.01
2019-05-02T11:08:32.028Z,50.48
2019-05-02T11:11:06.266Z,49.03
2019-05-02T11:14:00.678Z,49.00
2019-05-02T11:16:42.407Z,46.56
2019-05-02T11:19:25.120Z,46.46
2019-05-02T11:21:58.793Z,46.45
2019-05-02T11:24:28.232Z,45.23
2019-05-02T11:27:02.821Z,44.05
2019-05-02T11:29:32.301Z,42.02
2019-05-02T11:32:02.728Z,41.29
2019-05-02T11:34:32.767Z,41.82
2019-05-02T11:37:02.201Z,41.73
2019-05-02T11:39:42.258Z,40.78
2019-05-02T11:42:06.478Z,40.98
2019-05-02T11:44:35.957Z,42.24
2019-05-02T11:47:06.119Z,45.30
2019-05-02T11:49:35.611Z,46.75
2019-05-02T11:52:05.025Z,45.56
2019-05-02T11:54:34.418Z,45.54
2019-05-02T11:57:03.835Z,45.72
2019-05-02T11:59:33.444Z,43.98
2019-05-02T12:02:19.089Z,44.56
2019-05-02T12:04:53.915Z,44.33
2019-05-02T12:07:23.124Z,46.42
2019-05-02T12:09:57.001Z,45.72
2019-05-02T12:12:27.310Z,43.76
2019-05-02T12:14:59.285Z,43.65
2019-05-02T12:17:28.660Z,44.09
2019-05-02T12:20:02.047Z,42.28
2019-05-02T12:22:32.450Z,43.80
2019-05-02T12:25:02.979Z,41.16
2019-05-02T12:27:32.549Z,40.96
2019-05-02T12:30:03.339Z,42.28
2019-05-02T12:32:33.421Z,42.49
2019-05-02T12:35:06.719Z,42.14
2019-05-02T12:37:36.071Z,41.44
2019-05-02T12:40:06.068Z,41.42
2019-05-02T12:42:36.043Z,40.41
2019-05-02T12:45:05.642Z,40.89
2019-05-02T12:47:35.011Z,38.54
2019-05-02T12:50:04.952Z,37.79
2019-05-02T12:52:34.329Z,37.32
2019-05-02T12:55:03.812Z,36.87
2019-05-02T12:57:33.234Z,36.73
2019-05-02T13:00:06.167Z,36.91
2019-05-02T13:02:44.438Z,37.91
2019-05-02T13:05:14.041Z,38.20
2019-05-02T13:07:50.651Z,37.98
2019-05-02T13:10:19.193Z,36.18
2019-05-02T13:12:48.597Z,35.69
2019-05-02T13:15:18.136Z,35.88
2019-05-02T13:17:48.923Z,34.77
2019-05-02T13:20:22.334Z,35.79
2019-05-02T13:23:13.585Z,35.42
2019-05-02T13:25:42.961Z,34.94
2019-05-02T13:28:12.464Z,34.71
2019-05-02T13:31:13.032Z,34.80
2019-05-02T13:33:49.370Z,35.37
2019-05-02T13:36:45.404Z,34.74
2019-05-02T13:39:26.128Z,35.86
2019-05-02T13:41:56.441Z,35.77
2019-05-02T13:44:29.613Z,34.81
2019-05-02T13:47:05.859Z,35.00
2019-05-02T13:49:35.320Z,34.77
2019-05-02T13:52:04.691Z,35.78
2019-05-02T13:54:35.108Z,36.45
2019-05-02T13:57:04.776Z,36.55
2019-05-02T13:59:34.151Z,33.89
2019-05-02T14:02:05.548Z,34.32
2019-05-02T14:04:34.922Z,35.09
2019-05-02T14:07:07.587Z,35.49
2019-05-02T14:09:58.215Z,35.37
2019-05-02T14:12:42.736Z,34.31
2019-05-02T14:15:13.681Z,33.70
2019-05-02T14:17:43.254Z,33.90
2019-05-02T14:20:13.837Z,33.02
2019-05-02T14:22:43.470Z,32.67
2019-05-02T14:25:13.083Z,34.12
2019-05-02T14:27:42.466Z,30.32
2019-05-02T14:30:12.337Z,30.66
2019-05-02T14:32:42.439Z,30.68
2019-05-02T14:35:26.390Z,32.05
2019-05-02T14:38:13.144Z,30.33
2019-05-02T14:40:52.782Z,29.21
2019-05-02T14:43:46.098Z,30.08
2019-05-02T14:46:12.574Z,28.78
2019-05-02T14:48:45.195Z,30.11
2019-05-02T14:51:16.883Z,29.67
2019-05-02T14:53:45.103Z,29.87
2019-05-02T14:56:47.390Z,29.43
2019-05-02T14:59:18.436Z,30.88
2019-05-02T15:01:49.983Z,31.33
2019-05-02T15:04:19.401Z,30.70
2019-05-02T15:06:52.287Z,31.54
2019-05-02T15:09:26.585Z,32.40
2019-05-02T15:11:59.011Z,30.92
2019-05-02T15:14:33.366Z,31.42
2019-05-02T15:17:03.567Z,31.34
2019-05-02T15:19:33.311Z,30.99
2019-05-02T15:22:02.705Z,31.14
2019-05-02T15:24:36.144Z,32.24
2019-05-02T15:27:11.447Z,32.14
2019-05-02T15:29:34.473Z,30.07
2019-05-02T15:32:22.291Z,31.03
2019-05-02T15:35:17.684Z,31.38
2019-05-02T15:37:45.564Z,31.25
2019-05-02T15:42:52.329Z,31.65
2019-05-02T15:45:25.766Z,31.23
2019-05-02T15:47:55.618Z,32.78
2019-05-02T15:50:25.905Z,32.54
2019-05-02T15:53:03.199Z,32.98
2019-05-02T15:55:39.163Z,33.13
2019-05-02T15:58:02.631Z,32.71
2019-05-02T16:00:35.652Z,33.04
2019-05-02T16:03:05.109Z,33.54
2019-05-02T16:05:36.566Z,32.99
2019-05-02T16:08:08.913Z,33.80
2019-05-02T16:10:38.467Z,32.59
2019-05-02T16:13:12.788Z,31.51
2019-05-02T16:15:40.185Z,30.63
2019-05-02T16:18:09.582Z,31.00
2019-05-02T16:20:48.710Z,30.83
2019-05-02T16:23:19.001Z,31.93
2019-05-02T16:25:48.243Z,31.84
2019-05-02T16:28:17.753Z,33.11
2019-05-02T16:30:48.789Z,33.69
2019-05-02T16:33:20.741Z,34.47
2019-05-02T16:35:51.507Z,36.28
2019-05-02T16:38:22.247Z,36.83
2019-05-02T16:40:52.616Z,37.65
2019-05-02T16:43:24.788Z,40.69
2019-05-02T16:45:54.400Z,45.30
2019-05-02T16:48:24.014Z,46.82
2019-05-02T16:50:53.490Z,47.90
2019-05-02T16:53:26.359Z,48.72
2019-05-02T16:55:58.403Z,48.48
2019-05-02T16:58:27.586Z,48.38
2019-05-02T17:00:59.240Z,48.14
2019-05-02T17:03:28.603Z,49.36
2019-05-02T17:05:58.176Z,49.87
2019-05-02T17:08:49.424Z,50.18
2019-05-02T17:11:20.194Z,49.92
2019-05-02T17:13:52.658Z,47.95
2019-05-02T17:16:22.219Z,46.99
2019-05-02T17:18:54.959Z,46.09
2019-05-02T17:21:26.978Z,46.66
2019-05-02T17:23:54.464Z,48.63
2019-05-02T17:26:24.478Z,50.43
2019-05-02T17:28:53.838Z,52.28
2019-05-02T17:31:23.218Z,53.09
2019-05-02T17:33:54.805Z,53.30
2019-05-02T17:36:28.391Z,53.60
2019-05-02T17:38:59.221Z,53.89
2019-05-02T17:41:26.666Z,53.73
2019-05-02T17:43:59.019Z,53.32
2019-05-02T17:46:27.713Z,53.95
2019-05-02T17:48:57.198Z,55.10
2019-05-02T17:51:48.376Z,56.01
2019-05-02T17:54:17.550Z,56.43
2019-05-02T17:56:47.096Z,57.37
2019-05-02T17:59:17.050Z,58.42
2019-05-02T18:01:46.554Z,58.94
2019-05-02T18:04:16.595Z,59.22
2019-05-02T18:06:46.802Z,60.01
2019-05-02T18:09:17.048Z,59.81
2019-05-02T18:11:46.459Z,60.00
2019-05-02T18:14:19.616Z,60.12
2019-05-02T18:16:51.007Z,60.78
2019-05-02T18:19:21.711Z,61.24
2019-05-02T18:21:49.380Z,61.79
2019-05-02T18:24:18.973Z,62.58
2019-05-02T18:26:48.442Z,63.00
2019-05-02T18:29:17.796Z,63.94
2019-05-02T18:31:47.735Z,64.32
2019-05-02T18:34:21.093Z,64.12
2019-05-02T18:36:48.309Z,63.80
2019-05-02T18:39:17.782Z,64.05
2019-05-02T18:41:47.523Z,64.87
2019-05-02T18:44:18.714Z,65.11
2019-05-02T18:46:48.397Z,65.40
2019-05-02T18:49:21.941Z,65.60
2019-05-02T18:51:53.768Z,66.01
2019-05-02T18:54:21.730Z,66.54
2019-05-02T18:56:55.322Z,67.36
2019-05-02T18:59:26.963Z,67.90
2019-05-02T19:01:57.178Z,68.55
2019-05-02T19:04:34.896Z,68.72
2019-05-02T19:06:58.329Z,68.95
2019-05-02T19:09:30.435Z,69.35
2019-05-02T19:12:05.307Z,69.67
2019-05-02T19:14:32.581Z,70.15
2019-05-02T19:17:07.009Z,70.27
2019-05-02T19:19:36.791Z,70.72
2019-05-02T19:22:07.449Z,70.94
2019-05-02T19:24:36.682Z,70.94
2019-05-02T19:27:06.610Z,71.20
2019-05-02T19:29:36.052Z,71.29
2019-05-02T19:32:08.400Z,71.36
2019-05-02T19:34:38.071Z,71.10
2019-05-02T19:37:07.523Z,71.10
2019-05-02T19:39:43.534Z,71.19
2019-05-02T19:42:12.273Z,69.36
2019-05-02T19:44:42.177Z,69.36
2019-05-02T19:47:15.712Z,69.02
2019-05-02T19:49:47.147Z,67.60
2019-05-02T19:52:14.040Z,67.06
2019-05-02T19:54:45.946Z,66.76
2019-05-02T19:57:17.084Z,67.33
2019-05-02T19:59:46.791Z,67.33
2019-05-02T20:02:16.165Z,66.84
2019-05-02T20:04:45.613Z,67.30
2019-05-02T20:07:15.017Z,67.30
2019-05-02T20:09:47.218Z,67.42
2019-05-02T20:12:15.800Z,67.66
2019-05-02T20:14:48.498Z,67.91
2019-05-02T20:17:20.360Z,68.61
2019-05-02T20:19:52.895Z,69.36
2019-05-02T20:22:22.497Z,70.15
2019-05-02T20:25:01.237Z,70.15
2019-05-02T20:27:30.206Z,71.13
2019-05-02T20:29:59.613Z,72.32
2019-05-02T20:32:29.067Z,72.32
2019-05-02T20:34:58.444Z,72.46
2019-05-02T20:37:27.894Z,72.75
2019-05-02T20:39:58.164Z,72.87
2019-05-02T20:42:27.579Z,73.28
2019-05-02T20:44:57.428Z,72.85
2019-05-02T20:47:27.878Z,73.03
2019-05-02T20:49:57.286Z,73.29
2019-05-02T20:52:26.661Z,73.29
2019-05-02T20:55:01.724Z,73.27
2019-05-02T20:57:31.769Z,73.58
2019-05-02T21:00:01.853Z,73.65
2019-05-02T21:02:31.956Z,73.54
2019-05-02T21:05:02.715Z,73.64
2019-05-02T21:07:53.304Z,73.84
2019-05-02T21:10:29.127Z,73.84
2019-05-02T21:12:58.690Z,74.25
2019-05-02T21:15:32.375Z,74.43
2019-05-02T21:18:02.347Z,74.57
2019-05-02T21:20:32.523Z,74.81
2019-05-02T21:23:09.412Z,74.90
2019-05-02T21:25:41.730Z,74.92
2019-05-02T21:28:11.944Z,74.95
2019-05-02T21:33:38.444Z,74.68
2019-05-02T21:36:12.059Z,74.81
2019-05-02T21:38:42.718Z,74.90
2019-05-02T21:41:15.424Z,75.00
2019-05-02T21:43:44.907Z,74.65
2019-05-02T21:46:16.840Z,74.80
2019-05-02T21:48:52.834Z,74.71
2019-05-02T21:51:40.038Z,74.79
2019-05-02T21:54:27.307Z,74.84
2019-05-02T21:57:02.542Z,75.14
2019-05-02T21:59:32.053Z,75.50
2019-05-02T22:02:11.890Z,75.71
2019-05-02T22:04:42.306Z,75.73
2019-05-02T22:07:14.838Z,75.78
2019-05-02T22:09:44.190Z,75.86
2019-05-02T22:12:15.478Z,76.01
2019-05-02T22:14:44.874Z,76.00
2019-05-02T22:17:22.802Z,75.75
2019-05-02T22:20:02.078Z,75.60
2019-05-02T22:22:34.360Z,75.46
2019-05-02T22:25:03.737Z,75.15
2019-05-02T22:27:35.152Z,74.99
2019-05-02T22:30:05.667Z,74.88
2019-05-02T22:32:46.855Z,75.14
2019-05-02T22:35:16.291Z,75.38
2019-05-02T22:37:47.530Z,75.24
2019-05-02T22:40:17.235Z,75.06
2019-05-02T22:42:46.658Z,74.92
2019-05-02T22:45:16.414Z,75.02
2019-05-02T22:47:46.661Z,74.71
2019-05-02T22:50:16.197Z,74.55
2019-05-02T22:52:45.570Z,74.50
2019-05-02T22:55:15.059Z,74.28
2019-05-02T22:57:44.463Z,73.92
2019-05-02T23:00:14.202Z,74.00
2019-05-02T23:02:46.723Z,73.77
2019-05-02T23:05:16.169Z,73.71
2019-05-02T23:07:46.528Z,73.81
2019-05-02T23:10:15.895Z,73.75
2019-05-02T23:12:45.460Z,73.27
2019-05-02T23:15:14.811Z,72.97
2019-05-02T23:17:44.156Z,72.72
2019-05-02T23:20:13.834Z,72.84
2019-05-02T23:22:43.218Z,72.54
2019-05-02T23:25:32.230Z,72.16
2019-05-02T23:28:06.346Z,72.05
2019-05-02T23:30:39.133Z,71.50
2019-05-02T23:33:08.532Z,71.60
2019-05-02T23:35:37.995Z,72.02
2019-05-02T23:38:07.849Z,71.82
2019-05-02T23:40:37.352Z,71.75
2019-05-02T23:43:06.746Z,71.46
2019-05-02T23:45:36.220Z,71.02
2019-05-02T23:48:06.223Z,71.29
2019-05-02T23:50:45.017Z,71.31
2019-05-02T23:53:14.501Z,71.33
2019-05-02T23:55:44.084Z,71.26
2019-05-02T23:58:13.450Z,71.54
